Terminal Aerodrome Forecast
Issued by NWS Burlington, VT

Home | Current Version | Previous Version | Text Only | Print | Product List | Glossary On
Versions: 1 2 3 4 5 6 7 8 9 10 11 12 13 14 15 16 17 18 19 20 21 22 23
631
FTUS41 KBTV 111139
TAFBTV
TAF
KBTV 111139Z 1112/1212 36005KT P6SM VCSH OVC060
     FM111400 31010KT P6SM VCSH OVC035
     FM120000 31011G19KT P6SM BKN040
     FM120800 28006KT P6SM SCT140
     FM121100 22004KT P6SM SCT200=

USA.gov is the U.S. government's official web portal to all federal, state and local government web resources and services.